sensor_id;sensor_type;location;lat;lon;timestamp;P1;durP1;ratioP1;P2;durP2;ratioP2
72850;SDS011;61171;43.848;10.510;2022-09-09T00:00:14;9.43;;;4.72;;
72850;SDS011;61171;43.848;10.510;2022-09-09T00:02:33;12.60;;;5.47;;
72850;SDS011;61171;43.848;10.510;2022-09-09T00:04:34;18.87;;;5.57;;
72850;SDS011;61171;43.848;10.510;2022-09-09T00:06:45;9.52;;;4.80;;
72850;SDS011;61171;43.848;10.510;2022-09-09T00:08:57;13.52;;;5.63;;
72850;SDS011;61171;43.848;10.510;2022-09-09T00:10:59;12.88;;;5.00;;
72850;SDS011;61171;43.848;10.510;2022-09-09T00:15:22;12.70;;;5.30;;
72850;SDS011;61171;43.848;10.510;2022-09-09T00:19:50;10.43;;;4.75;;
72850;SDS011;61171;43.848;10.510;2022-09-09T00:23:57;9.65;;;4.90;;
72850;SDS011;61171;43.848;10.510;2022-09-09T00:28:10;11.75;;;4.97;;
72850;SDS011;61171;43.848;10.510;2022-09-09T00:32:16;11.00;;;4.53;;
72850;SDS011;61171;43.848;10.510;2022-09-09T00:34:21;13.38;;;4.75;;
72850;SDS011;61171;43.848;10.510;2022-09-09T00:36:23;12.32;;;4.50;;
72850;SDS011;61171;43.848;10.510;2022-09-09T00:38:27;11.55;;;3.70;;
72850;SDS011;61171;43.848;10.510;2022-09-09T00:40:35;12.00;;;4.33;;
72850;SDS011;61171;43.848;10.510;2022-09-09T00:44:37;9.17;;;4.10;;
72850;SDS011;61171;43.848;10.510;2022-09-09T00:46:50;11.32;;;4.00;;
72850;SDS011;61171;43.848;10.510;2022-09-09T00:48:57;9.17;;;3.50;;
72850;SDS011;61171;43.848;10.510;2022-09-09T00:51:00;9.13;;;3.85;;
72850;SDS011;61171;43.848;10.510;2022-09-09T00:53:10;11.25;;;3.88;;
72850;SDS011;61171;43.848;10.510;2022-09-09T00:55:17;9.80;;;3.90;;
72850;SDS011;61171;43.848;10.510;2022-09-09T01:01:21;11.77;;;4.27;;
72850;SDS011;61171;43.848;10.510;2022-09-09T01:03:26;11.52;;;4.30;;
72850;SDS011;61171;43.848;10.510;2022-09-09T01:07:48;10.30;;;3.88;;
72850;SDS011;61171;43.848;10.510;2022-09-09T01:09:56;9.35;;;4.18;;
72850;SDS011;61171;43.848;10.510;2022-09-09T01:14:02;11.00;;;4.10;;
72850;SDS011;61171;43.848;10.510;2022-09-09T01:16:04;8.25;;;3.88;;
72850;SDS011;61171;43.848;10.510;2022-09-09T01:18:08;10.87;;;3.80;;
72850;SDS011;61171;43.848;10.510;2022-09-09T01:20:12;9.88;;;4.03;;
72850;SDS011;61171;43.848;10.510;2022-09-09T01:24:27;11.48;;;4.00;;
72850;SDS011;61171;43.848;10.510;2022-09-09T01:26:39;10.52;;;4.32;;
72850;SDS011;61171;43.848;10.510;2022-09-09T01:28:41;8.03;;;3.30;;
72850;SDS011;61171;43.848;10.510;2022-09-09T01:30:42;8.77;;;3.80;;
72850;SDS011;61171;43.848;10.510;2022-09-09T01:34:46;9.30;;;3.42;;
72850;SDS011;61171;43.848;10.510;2022-09-09T01:36:52;12.43;;;3.70;;
72850;SDS011;61171;43.848;10.510;2022-09-09T01:38:53;10.45;;;4.20;;
72850;SDS011;61171;43.848;10.510;2022-09-09T01:40:53;11.10;;;3.90;;
72850;SDS011;61171;43.848;10.510;2022-09-09T01:42:54;9.80;;;3.80;;
72850;SDS011;61171;43.848;10.510;2022-09-09T01:44:54;9.93;;;3.60;;
72850;SDS011;61171;43.848;10.510;2022-09-09T01:46:55;8.20;;;3.73;;
72850;SDS011;61171;43.848;10.510;2022-09-09T01:48:55;12.17;;;3.80;;
72850;SDS011;61171;43.848;10.510;2022-09-09T01:50:56;9.57;;;3.63;;
72850;SDS011;61171;43.848;10.510;2022-09-09T01:52:57;8.63;;;3.67;;
72850;SDS011;61171;43.848;10.510;2022-09-09T01:54:58;7.35;;;3.67;;
72850;SDS011;61171;43.848;10.510;2022-09-09T01:59:09;9.85;;;4.05;;
72850;SDS011;61171;43.848;10.510;2022-09-09T02:01:15;12.03;;;4.03;;
72850;SDS011;61171;43.848;10.510;2022-09-09T02:07:34;9.95;;;4.05;;
72850;SDS011;61171;43.848;10.510;2022-09-09T02:09:37;9.10;;;3.90;;
72850;SDS011;61171;43.848;10.510;2022-09-09T02:11:38;9.97;;;4.17;;
72850;SDS011;61171;43.848;10.510;2022-09-09T02:13:38;8.87;;;4.00;;
72850;SDS011;61171;43.848;10.510;2022-09-09T02:15:43;10.90;;;4.40;;
72850;SDS011;61171;43.848;10.510;2022-09-09T02:17:47;10.00;;;4.07;;
72850;SDS011;61171;43.848;10.510;2022-09-09T02:19:52;8.98;;;4.20;;
72850;SDS011;61171;43.848;10.510;2022-09-09T02:21:54;10.63;;;4.00;;
72850;SDS011;61171;43.848;10.510;2022-09-09T02:23:55;10.30;;;4.03;;
72850;SDS011;61171;43.848;10.510;2022-09-09T02:25:57;7.93;;;4.20;;
72850;SDS011;61171;43.848;10.510;2022-09-09T02:27:58;10.23;;;4.20;;
72850;SDS011;61171;43.848;10.510;2022-09-09T02:29:59;10.73;;;4.33;;
72850;SDS011;61171;43.848;10.510;2022-09-09T02:32:03;10.50;;;4.40;;
72850;SDS011;61171;43.848;10.510;2022-09-09T02:34:05;8.20;;;4.30;;
72850;SDS011;61171;43.848;10.510;2022-09-09T02:36:10;12.02;;;4.63;;
72850;SDS011;61171;43.848;10.510;2022-09-09T02:38:12;15.27;;;4.45;;
72850;SDS011;61171;43.848;10.510;2022-09-09T02:40:13;9.07;;;4.17;;
72850;SDS011;61171;43.848;10.510;2022-09-09T02:42:15;9.73;;;4.20;;
72850;SDS011;61171;43.848;10.510;2022-09-09T02:44:16;9.63;;;4.20;;
72850;SDS011;61171;43.848;10.510;2022-09-09T02:48:20;9.77;;;4.40;;
72850;SDS011;61171;43.848;10.510;2022-09-09T02:50:24;12.68;;;4.60;;
72850;SDS011;61171;43.848;10.510;2022-09-09T02:52:26;9.27;;;4.40;;
72850;SDS011;61171;43.848;10.510;2022-09-09T02:54:33;10.73;;;4.15;;
72850;SDS011;61171;43.848;10.510;2022-09-09T02:56:37;8.93;;;3.97;;
72850;SDS011;61171;43.848;10.510;2022-09-09T02:58:40;14.50;;;4.72;;
72850;SDS011;61171;43.848;10.510;2022-09-09T03:00:40;10.63;;;4.17;;
72850;SDS011;61171;43.848;10.510;2022-09-09T03:02:40;10.23;;;4.32;;
72850;SDS011;61171;43.848;10.510;2022-09-09T03:04:42;12.20;;;4.30;;
72850;SDS011;61171;43.848;10.510;2022-09-09T03:06:44;9.98;;;4.25;;
72850;SDS011;61171;43.848;10.510;2022-09-09T03:08:44;10.03;;;4.47;;
72850;SDS011;61171;43.848;10.510;2022-09-09T03:10:44;8.17;;;3.93;;
72850;SDS011;61171;43.848;10.510;2022-09-09T03:12:45;9.80;;;4.23;;
72850;SDS011;61171;43.848;10.510;2022-09-09T03:14:45;13.23;;;4.45;;
72850;SDS011;61171;43.848;10.510;2022-09-09T03:16:46;10.53;;;4.37;;
72850;SDS011;61171;43.848;10.510;2022-09-09T03:18:46;14.85;;;4.85;;
72850;SDS011;61171;43.848;10.510;2022-09-09T03:20:47;10.87;;;4.50;;
72850;SDS011;61171;43.848;10.510;2022-09-09T03:22:51;9.27;;;4.70;;
72850;SDS011;61171;43.848;10.510;2022-09-09T03:24:51;12.33;;;4.83;;
72850;SDS011;61171;43.848;10.510;2022-09-09T03:26:51;12.83;;;4.90;;
72850;SDS011;61171;43.848;10.510;2022-09-09T03:28:51;13.23;;;4.63;;
72850;SDS011;61171;43.848;10.510;2022-09-09T03:30:57;9.82;;;4.28;;
72850;SDS011;61171;43.848;10.510;2022-09-09T03:32:57;12.55;;;5.00;;
72850;SDS011;61171;43.848;10.510;2022-09-09T03:34:57;12.67;;;5.27;;
72850;SDS011;61171;43.848;10.510;2022-09-09T03:36:58;11.10;;;4.43;;
72850;SDS011;61171;43.848;10.510;2022-09-09T03:38:58;12.13;;;4.70;;
72850;SDS011;61171;43.848;10.510;2022-09-09T03:40:59;11.68;;;5.05;;
72850;SDS011;61171;43.848;10.510;2022-09-09T03:43:00;12.73;;;5.00;;
72850;SDS011;61171;43.848;10.510;2022-09-09T03:45:00;12.07;;;5.30;;
72850;SDS011;61171;43.848;10.510;2022-09-09T03:47:00;11.50;;;4.80;;
72850;SDS011;61171;43.848;10.510;2022-09-09T03:49:00;10.27;;;4.90;;
72850;SDS011;61171;43.848;10.510;2022-09-09T03:51:01;12.60;;;4.80;;
72850;SDS011;61171;43.848;10.510;2022-09-09T03:53:03;13.98;;;5.07;;
72850;SDS011;61171;43.848;10.510;2022-09-09T03:55:03;12.00;;;5.00;;
72850;SDS011;61171;43.848;10.510;2022-09-09T03:57:04;9.35;;;4.65;;
72850;SDS011;61171;43.848;10.510;2022-09-09T03:59:04;11.20;;;4.77;;
72850;SDS011;61171;43.848;10.510;2022-09-09T04:01:06;9.50;;;4.17;;
72850;SDS011;61171;43.848;10.510;2022-09-09T04:03:09;8.23;;;4.40;;
72850;SDS011;61171;43.848;10.510;2022-09-09T04:05:09;10.25;;;4.32;;
72850;SDS011;61171;43.848;10.510;2022-09-09T04:07:09;12.13;;;4.80;;
72850;SDS011;61171;43.848;10.510;2022-09-09T04:09:11;8.73;;;4.45;;
72850;SDS011;61171;43.848;10.510;2022-09-09T04:11:12;8.90;;;4.47;;
72850;SDS011;61171;43.848;10.510;2022-09-09T04:13:12;9.63;;;5.07;;
72850;SDS011;61171;43.848;10.510;2022-09-09T04:15:14;9.70;;;4.47;;
72850;SDS011;61171;43.848;10.510;2022-09-09T04:17:14;10.50;;;4.53;;
72850;SDS011;61171;43.848;10.510;2022-09-09T04:19:14;10.67;;;4.60;;
72850;SDS011;61171;43.848;10.510;2022-09-09T04:21:14;12.73;;;5.37;;
72850;SDS011;61171;43.848;10.510;2022-09-09T04:23:16;11.95;;;4.50;;
72850;SDS011;61171;43.848;10.510;2022-09-09T04:25:17;12.75;;;5.28;;
72850;SDS011;61171;43.848;10.510;2022-09-09T04:27:17;14.07;;;5.00;;
72850;SDS011;61171;43.848;10.510;2022-09-09T04:29:17;13.27;;;4.87;;
72850;SDS011;61171;43.848;10.510;2022-09-09T04:31:19;9.80;;;4.70;;
72850;SDS011;61171;43.848;10.510;2022-09-09T04:33:21;10.13;;;4.65;;
72850;SDS011;61171;43.848;10.510;2022-09-09T04:35:21;10.17;;;4.93;;
72850;SDS011;61171;43.848;10.510;2022-09-09T04:37:21;14.47;;;4.67;;
72850;SDS011;61171;43.848;10.510;2022-09-09T04:39:22;8.33;;;4.23;;
72850;SDS011;61171;43.848;10.510;2022-09-09T04:41:22;10.57;;;4.20;;
72850;SDS011;61171;43.848;10.510;2022-09-09T04:43:23;10.90;;;4.40;;
72850;SDS011;61171;43.848;10.510;2022-09-09T04:45:25;10.40;;;4.28;;
72850;SDS011;61171;43.848;10.510;2022-09-09T04:47:26;13.23;;;5.07;;
72850;SDS011;61171;43.848;10.510;2022-09-09T04:49:26;10.23;;;4.00;;
72850;SDS011;61171;43.848;10.510;2022-09-09T04:51:26;10.13;;;3.90;;
72850;SDS011;61171;43.848;10.510;2022-09-09T04:53:27;10.07;;;4.37;;
72850;SDS011;61171;43.848;10.510;2022-09-09T04:55:27;11.15;;;4.20;;
72850;SDS011;61171;43.848;10.510;2022-09-09T04:57:27;9.77;;;4.10;;
72850;SDS011;61171;43.848;10.510;2022-09-09T04:59:28;12.67;;;4.27;;
72850;SDS011;61171;43.848;10.510;2022-09-09T05:01:29;10.73;;;4.18;;
72850;SDS011;61171;43.848;10.510;2022-09-09T05:03:29;10.50;;;4.13;;
72850;SDS011;61171;43.848;10.510;2022-09-09T05:05:29;10.57;;;4.23;;
72850;SDS011;61171;43.848;10.510;2022-09-09T05:07:30;8.60;;;4.40;;
72850;SDS011;61171;43.848;10.510;2022-09-09T05:09:31;7.30;;;3.88;;
72850;SDS011;61171;43.848;10.510;2022-09-09T05:11:31;11.73;;;4.70;;
72850;SDS011;61171;43.848;10.510;2022-09-09T05:13:32;10.93;;;4.20;;
72850;SDS011;61171;43.848;10.510;2022-09-09T05:15:33;11.20;;;4.40;;
72850;SDS011;61171;43.848;10.510;2022-09-09T05:17:33;10.70;;;4.70;;
72850;SDS011;61171;43.848;10.510;2022-09-09T05:19:33;11.40;;;4.40;;
72850;SDS011;61171;43.848;10.510;2022-09-09T05:21:34;10.68;;;4.57;;
72850;SDS011;61171;43.848;10.510;2022-09-09T05:23:34;13.40;;;4.40;;
72850;SDS011;61171;43.848;10.510;2022-09-09T05:25:35;11.60;;;4.40;;
72850;SDS011;61171;43.848;10.510;2022-09-09T05:27:35;10.40;;;4.17;;
72850;SDS011;61171;43.848;10.510;2022-09-09T05:29:35;9.45;;;4.38;;
72850;SDS011;61171;43.848;10.510;2022-09-09T05:31:36;11.07;;;4.37;;
72850;SDS011;61171;43.848;10.510;2022-09-09T05:33:36;10.20;;;4.20;;
72850;SDS011;61171;43.848;10.510;2022-09-09T05:35:37;14.40;;;4.77;;
72850;SDS011;61171;43.848;10.510;2022-09-09T05:37:38;11.77;;;4.22;;
72850;SDS011;61171;43.848;10.510;2022-09-09T05:39:38;10.27;;;4.60;;
72850;SDS011;61171;43.848;10.510;2022-09-09T05:41:38;10.03;;;4.10;;
72850;SDS011;61171;43.848;10.510;2022-09-09T05:43:38;8.90;;;4.20;;
72850;SDS011;61171;43.848;10.510;2022-09-09T05:45:39;10.53;;;4.00;;
72850;SDS011;61171;43.848;10.510;2022-09-09T05:47:39;9.20;;;3.60;;
72850;SDS011;61171;43.848;10.510;2022-09-09T05:49:39;8.70;;;3.87;;
72850;SDS011;61171;43.848;10.510;2022-09-09T05:51:39;9.37;;;3.90;;
72850;SDS011;61171;43.848;10.510;2022-09-09T05:53:40;8.37;;;3.80;;
72850;SDS011;61171;43.848;10.510;2022-09-09T05:55:40;8.73;;;4.30;;
72850;SDS011;61171;43.848;10.510;2022-09-09T05:57:41;8.43;;;3.90;;
72850;SDS011;61171;43.848;10.510;2022-09-09T05:59:42;10.10;;;3.97;;
72850;SDS011;61171;43.848;10.510;2022-09-09T06:01:42;11.03;;;3.83;;
72850;SDS011;61171;43.848;10.510;2022-09-09T06:03:43;9.97;;;3.90;;
72850;SDS011;61171;43.848;10.510;2022-09-09T06:05:44;9.48;;;3.90;;
72850;SDS011;61171;43.848;10.510;2022-09-09T06:07:44;8.33;;;3.90;;
72850;SDS011;61171;43.848;10.510;2022-09-09T06:09:44;11.07;;;3.83;;
72850;SDS011;61171;43.848;10.510;2022-09-09T06:11:45;10.27;;;3.93;;
72850;SDS011;61171;43.848;10.510;2022-09-09T06:13:45;11.73;;;4.10;;
72850;SDS011;61171;43.848;10.510;2022-09-09T06:15:51;9.00;;;4.00;;
72850;SDS011;61171;43.848;10.510;2022-09-09T06:17:54;12.97;;;4.10;;
72850;SDS011;61171;43.848;10.510;2022-09-09T06:19:55;10.57;;;3.92;;
72850;SDS011;61171;43.848;10.510;2022-09-09T06:21:55;9.70;;;4.00;;
72850;SDS011;61171;43.848;10.510;2022-09-09T06:23:56;7.67;;;3.67;;
72850;SDS011;61171;43.848;10.510;2022-09-09T06:28:05;8.82;;;3.65;;
72850;SDS011;61171;43.848;10.510;2022-09-09T06:30:06;11.60;;;3.70;;
72850;SDS011;61171;43.848;10.510;2022-09-09T06:32:07;9.40;;;3.45;;
72850;SDS011;61171;43.848;10.510;2022-09-09T06:34:08;10.73;;;3.35;;
72850;SDS011;61171;43.848;10.510;2022-09-09T06:36:12;9.13;;;3.67;;
72850;SDS011;61171;43.848;10.510;2022-09-09T06:38:13;12.00;;;3.58;;
72850;SDS011;61171;43.848;10.510;2022-09-09T06:40:14;8.60;;;3.30;;
72850;SDS011;61171;43.848;10.510;2022-09-09T06:42:15;8.48;;;3.47;;
72850;SDS011;61171;43.848;10.510;2022-09-09T06:44:15;11.30;;;3.70;;
72850;SDS011;61171;43.848;10.510;2022-09-09T06:46:20;9.63;;;4.07;;
72850;SDS011;61171;43.848;10.510;2022-09-09T06:48:24;11.70;;;4.73;;
72850;SDS011;61171;43.848;10.510;2022-09-09T06:50:25;11.82;;;5.00;;
72850;SDS011;61171;43.848;10.510;2022-09-09T06:52:26;10.23;;;4.63;;
72850;SDS011;61171;43.848;10.510;2022-09-09T06:54:26;12.70;;;4.53;;
72850;SDS011;61171;43.848;10.510;2022-09-09T06:56:34;12.07;;;4.53;;
72850;SDS011;61171;43.848;10.510;2022-09-09T06:58:34;13.07;;;4.23;;
72850;SDS011;61171;43.848;10.510;2022-09-09T07:00:35;12.25;;;4.80;;
72850;SDS011;61171;43.848;10.510;2022-09-09T07:02:37;10.82;;;4.45;;
72850;SDS011;61171;43.848;10.510;2022-09-09T07:04:39;11.27;;;4.50;;
72850;SDS011;61171;43.848;10.510;2022-09-09T07:06:40;12.13;;;4.33;;
72850;SDS011;61171;43.848;10.510;2022-09-09T07:08:43;9.88;;;4.05;;
72850;SDS011;61171;43.848;10.510;2022-09-09T07:10:43;9.50;;;4.07;;
72850;SDS011;61171;43.848;10.510;2022-09-09T07:12:44;9.70;;;4.03;;
72850;SDS011;61171;43.848;10.510;2022-09-09T07:14:44;9.27;;;4.17;;
72850;SDS011;61171;43.848;10.510;2022-09-09T07:16:45;12.57;;;4.17;;
72850;SDS011;61171;43.848;10.510;2022-09-09T07:18:46;10.57;;;3.88;;
72850;SDS011;61171;43.848;10.510;2022-09-09T07:20:55;10.63;;;4.30;;
72850;SDS011;61171;43.848;10.510;2022-09-09T07:22:56;9.70;;;4.20;;
72850;SDS011;61171;43.848;10.510;2022-09-09T07:24:58;9.18;;;3.85;;
72850;SDS011;61171;43.848;10.510;2022-09-09T07:26:58;12.97;;;4.40;;
72850;SDS011;61171;43.848;10.510;2022-09-09T07:28:59;12.00;;;4.95;;
72850;SDS011;61171;43.848;10.510;2022-09-09T07:31:00;10.90;;;4.80;;
72850;SDS011;61171;43.848;10.510;2022-09-09T07:33:03;11.30;;;4.90;;
72850;SDS011;61171;43.848;10.510;2022-09-09T07:35:03;9.93;;;4.70;;
72850;SDS011;61171;43.848;10.510;2022-09-09T07:37:04;15.67;;;5.30;;
72850;SDS011;61171;43.848;10.510;2022-09-09T07:39:05;13.50;;;5.73;;
72850;SDS011;61171;43.848;10.510;2022-09-09T07:41:07;18.77;;;5.72;;
72850;SDS011;61171;43.848;10.510;2022-09-09T07:43:09;17.65;;;5.80;;
72850;SDS011;61171;43.848;10.510;2022-09-09T07:45:09;14.43;;;5.70;;
72850;SDS011;61171;43.848;10.510;2022-09-09T07:47:09;13.43;;;5.13;;
72850;SDS011;61171;43.848;10.510;2022-09-09T07:49:10;16.00;;;5.60;;
72850;SDS011;61171;43.848;10.510;2022-09-09T07:51:14;12.97;;;5.43;;
72850;SDS011;61171;43.848;10.510;2022-09-09T07:53:17;14.80;;;5.70;;
72850;SDS011;61171;43.848;10.510;2022-09-09T07:55:20;14.80;;;5.53;;
72850;SDS011;61171;43.848;10.510;2022-09-09T07:57:20;13.18;;;5.50;;
72850;SDS011;61171;43.848;10.510;2022-09-09T07:59:21;15.77;;;5.30;;
72850;SDS011;61171;43.848;10.510;2022-09-09T08:01:26;13.90;;;5.70;;
72850;SDS011;61171;43.848;10.510;2022-09-09T08:03:26;16.65;;;5.55;;
72850;SDS011;61171;43.848;10.510;2022-09-09T08:05:27;16.10;;;5.33;;
72850;SDS011;61171;43.848;10.510;2022-09-09T08:07:27;15.67;;;5.20;;
72850;SDS011;61171;43.848;10.510;2022-09-09T08:09:28;11.65;;;4.80;;
72850;SDS011;61171;43.848;10.510;2022-09-09T08:11:28;12.33;;;4.90;;
72850;SDS011;61171;43.848;10.510;2022-09-09T08:13:29;15.80;;;5.22;;
72850;SDS011;61171;43.848;10.510;2022-09-09T08:15:31;12.35;;;4.90;;
72850;SDS011;61171;43.848;10.510;2022-09-09T08:17:32;13.93;;;4.37;;
72850;SDS011;61171;43.848;10.510;2022-09-09T08:19:32;13.43;;;4.80;;
72850;SDS011;61171;43.848;10.510;2022-09-09T08:21:36;12.77;;;4.78;;
72850;SDS011;61171;43.848;10.510;2022-09-09T08:23:40;13.60;;;4.50;;
72850;SDS011;61171;43.848;10.510;2022-09-09T08:25:41;13.07;;;4.75;;
72850;SDS011;61171;43.848;10.510;2022-09-09T08:27:41;10.70;;;4.00;;
72850;SDS011;61171;43.848;10.510;2022-09-09T08:29:41;13.43;;;3.90;;
72850;SDS011;61171;43.848;10.510;2022-09-09T08:31:43;11.63;;;3.83;;
72850;SDS011;61171;43.848;10.510;2022-09-09T08:33:44;13.05;;;3.78;;
72850;SDS011;61171;43.848;10.510;2022-09-09T08:35:51;12.40;;;4.00;;
72850;SDS011;61171;43.848;10.510;2022-09-09T08:37:55;11.48;;;3.20;;
72850;SDS011;61171;43.848;10.510;2022-09-09T08:39:55;9.07;;;3.20;;
72850;SDS011;61171;43.848;10.510;2022-09-09T08:44:07;13.10;;;3.30;;
72850;SDS011;61171;43.848;10.510;2022-09-09T08:48:14;10.70;;;3.03;;
72850;SDS011;61171;43.848;10.510;2022-09-09T08:50:31;9.80;;;3.15;;
72850;SDS011;61171;43.848;10.510;2022-09-09T08:54:49;11.23;;;3.00;;
72850;SDS011;61171;43.848;10.510;2022-09-09T08:56:50;13.60;;;3.08;;
72850;SDS011;61171;43.848;10.510;2022-09-09T08:58:52;8.63;;;2.13;;
72850;SDS011;61171;43.848;10.510;2022-09-09T09:05:19;13.37;;;2.40;;
72850;SDS011;61171;43.848;10.510;2022-09-09T09:11:48;9.98;;;2.42;;
72850;SDS011;61171;43.848;10.510;2022-09-09T09:13:54;9.75;;;2.05;;
72850;SDS011;61171;43.848;10.510;2022-09-09T09:15:56;8.27;;;2.03;;
72850;SDS011;61171;43.848;10.510;2022-09-09T09:17:58;9.48;;;2.00;;
72850;SDS011;61171;43.848;10.510;2022-09-09T09:19:58;9.47;;;2.33;;
72850;SDS011;61171;43.848;10.510;2022-09-09T09:24:09;11.93;;;1.95;;
72850;SDS011;61171;43.848;10.510;2022-09-09T09:26:12;8.18;;;2.10;;
72850;SDS011;61171;43.848;10.510;2022-09-09T09:28:16;9.50;;;2.20;;
72850;SDS011;61171;43.848;10.510;2022-09-09T09:30:22;11.80;;;2.42;;
72850;SDS011;61171;43.848;10.510;2022-09-09T09:32:23;9.83;;;2.20;;
72850;SDS011;61171;43.848;10.510;2022-09-09T09:34:24;8.13;;;1.90;;
72850;SDS011;61171;43.848;10.510;2022-09-09T09:36:33;11.03;;;2.17;;
72850;SDS011;61171;43.848;10.510;2022-09-09T09:38:35;7.90;;;1.97;;
72850;SDS011;61171;43.848;10.510;2022-09-09T09:40:35;8.05;;;1.80;;
72850;SDS011;61171;43.848;10.510;2022-09-09T09:42:36;7.63;;;1.90;;
72850;SDS011;61171;43.848;10.510;2022-09-09T09:44:37;9.75;;;1.85;;
72850;SDS011;61171;43.848;10.510;2022-09-09T09:46:37;8.13;;;1.70;;
72850;SDS011;61171;43.848;10.510;2022-09-09T09:48:37;8.40;;;1.90;;
72850;SDS011;61171;43.848;10.510;2022-09-09T09:50:54;10.07;;;1.90;;
72850;SDS011;61171;43.848;10.510;2022-09-09T09:52:56;9.60;;;2.08;;
72850;SDS011;61171;43.848;10.510;2022-09-09T09:54:57;9.05;;;2.00;;
72850;SDS011;61171;43.848;10.510;2022-09-09T09:57:12;9.95;;;1.95;;
72850;SDS011;61171;43.848;10.510;2022-09-09T10:01:32;8.53;;;2.07;;
72850;SDS011;61171;43.848;10.510;2022-09-09T10:03:33;9.48;;;2.13;;
72850;SDS011;61171;43.848;10.510;2022-09-09T10:05:37;8.57;;;2.20;;
72850;SDS011;61171;43.848;10.510;2022-09-09T10:07:44;8.93;;;2.30;;
72850;SDS011;61171;43.848;10.510;2022-09-09T10:09:46;9.82;;;2.10;;
72850;SDS011;61171;43.848;10.510;2022-09-09T10:12:01;10.77;;;2.20;;
72850;SDS011;61171;43.848;10.510;2022-09-09T10:23:10;8.07;;;2.00;;
72850;SDS011;61171;43.848;10.510;2022-09-09T10:27:31;10.43;;;2.40;;
72850;SDS011;61171;43.848;10.510;2022-09-09T10:38:16;10.02;;;2.40;;
72850;SDS011;61171;43.848;10.510;2022-09-09T10:40:20;8.43;;;2.10;;
72850;SDS011;61171;43.848;10.510;2022-09-09T10:42:26;10.70;;;2.40;;
72850;SDS011;61171;43.848;10.510;2022-09-09T10:55:19;7.72;;;2.33;;
72850;SDS011;61171;43.848;10.510;2022-09-09T10:57:31;6.57;;;2.22;;
72850;SDS011;61171;43.848;10.510;2022-09-09T10:59:36;11.25;;;2.42;;
72850;SDS011;61171;43.848;10.510;2022-09-09T11:01:43;8.55;;;2.33;;
72850;SDS011;61171;43.848;10.510;2022-09-09T11:03:45;8.43;;;2.27;;
72850;SDS011;61171;43.848;10.510;2022-09-09T11:05:51;7.15;;;2.00;;
72850;SDS011;61171;43.848;10.510;2022-09-09T11:10:03;9.55;;;2.20;;
72850;SDS011;61171;43.848;10.510;2022-09-09T11:12:06;11.10;;;2.00;;
72850;SDS011;61171;43.848;10.510;2022-09-09T11:14:11;6.80;;;1.87;;
72850;SDS011;61171;43.848;10.510;2022-09-09T11:18:34;8.30;;;2.33;;
72850;SDS011;61171;43.848;10.510;2022-09-09T11:20:35;8.02;;;2.03;;
72850;SDS011;61171;43.848;10.510;2022-09-09T11:22:48;8.45;;;2.10;;
72850;SDS011;61171;43.848;10.510;2022-09-09T11:24:50;9.50;;;2.33;;
72850;SDS011;61171;43.848;10.510;2022-09-09T11:26:53;7.90;;;1.95;;
72850;SDS011;61171;43.848;10.510;2022-09-09T11:29:02;10.30;;;2.30;;
72850;SDS011;61171;43.848;10.510;2022-09-09T11:37:35;7.97;;;1.83;;
72850;SDS011;61171;43.848;10.510;2022-09-09T11:41:46;6.60;;;1.77;;
72850;SDS011;61171;43.848;10.510;2022-09-09T11:43:47;9.73;;;2.27;;
72850;SDS011;61171;43.848;10.510;2022-09-09T11:45:52;7.72;;;1.90;;
72850;SDS011;61171;43.848;10.510;2022-09-09T11:48:02;10.48;;;2.10;;
72850;SDS011;61171;43.848;10.510;2022-09-09T11:50:10;7.78;;;1.90;;
72850;SDS011;61171;43.848;10.510;2022-09-09T11:52:35;10.00;;;2.10;;
72850;SDS011;61171;43.848;10.510;2022-09-09T11:54:33;6.87;;;2.10;;
72850;SDS011;61171;43.848;10.510;2022-09-09T11:56:44;8.65;;;2.00;;
72850;SDS011;61171;43.848;10.510;2022-09-09T11:58:53;9.82;;;2.03;;
72850;SDS011;61171;43.848;10.510;2022-09-09T12:00:55;7.30;;;1.80;;
72850;SDS011;61171;43.848;10.510;2022-09-09T12:02:55;7.63;;;1.90;;
72850;SDS011;61171;43.848;10.510;2022-09-09T12:07:00;6.97;;;1.75;;
72850;SDS011;61171;43.848;10.510;2022-09-09T12:11:26;8.32;;;2.20;;
72850;SDS011;61171;43.848;10.510;2022-09-09T12:13:27;7.28;;;1.92;;
72850;SDS011;61171;43.848;10.510;2022-09-09T12:15:27;7.00;;;1.70;;
72850;SDS011;61171;43.848;10.510;2022-09-09T12:17:29;7.85;;;1.65;;
72850;SDS011;61171;43.848;10.510;2022-09-09T12:19:30;7.43;;;1.90;;
72850;SDS011;61171;43.848;10.510;2022-09-09T12:21:35;10.17;;;1.87;;
72850;SDS011;61171;43.848;10.510;2022-09-09T12:27:47;8.23;;;1.93;;
72850;SDS011;61171;43.848;10.510;2022-09-09T12:34:11;6.30;;;1.87;;
72850;SDS011;61171;43.848;10.510;2022-09-09T12:36:15;7.78;;;1.92;;
72850;SDS011;61171;43.848;10.510;2022-09-09T12:38:22;6.53;;;2.08;;
72850;SDS011;61171;43.848;10.510;2022-09-09T12:40:29;9.52;;;2.42;;
72850;SDS011;61171;43.848;10.510;2022-09-09T12:42:30;6.87;;;1.90;;
72850;SDS011;61171;43.848;10.510;2022-09-09T12:44:33;8.85;;;2.17;;
72850;SDS011;61171;43.848;10.510;2022-09-09T12:46:34;7.07;;;1.87;;
72850;SDS011;61171;43.848;10.510;2022-09-09T12:48:37;10.52;;;1.92;;
72850;SDS011;61171;43.848;10.510;2022-09-09T12:50:42;8.25;;;1.98;;
72850;SDS011;61171;43.848;10.510;2022-09-09T12:52:43;7.05;;;1.80;;
72850;SDS011;61171;43.848;10.510;2022-09-09T12:54:45;6.53;;;1.67;;
72850;SDS011;61171;43.848;10.510;2022-09-09T12:56:51;9.23;;;1.75;;
72850;SDS011;61171;43.848;10.510;2022-09-09T12:58:51;7.97;;;2.37;;
72850;SDS011;61171;43.848;10.510;2022-09-09T13:00:52;7.67;;;2.00;;
72850;SDS011;61171;43.848;10.510;2022-09-09T13:02:54;9.07;;;1.80;;
72850;SDS011;61171;43.848;10.510;2022-09-09T13:04:54;7.65;;;2.00;;
72850;SDS011;61171;43.848;10.510;2022-09-09T13:07:06;8.32;;;1.88;;
72850;SDS011;61171;43.848;10.510;2022-09-09T13:09:08;6.13;;;2.03;;
72850;SDS011;61171;43.848;10.510;2022-09-09T13:11:13;6.43;;;1.67;;
72850;SDS011;61171;43.848;10.510;2022-09-09T13:13:15;8.70;;;1.90;;
72850;SDS011;61171;43.848;10.510;2022-09-09T13:15:20;8.27;;;2.00;;
72850;SDS011;61171;43.848;10.510;2022-09-09T13:17:23;6.97;;;1.73;;
72850;SDS011;61171;43.848;10.510;2022-09-09T13:19:23;9.55;;;1.95;;
72850;SDS011;61171;43.848;10.510;2022-09-09T13:21:38;7.83;;;2.03;;
72850;SDS011;61171;43.848;10.510;2022-09-09T13:23:38;7.10;;;1.85;;
72850;SDS011;61171;43.848;10.510;2022-09-09T13:25:39;8.77;;;1.90;;
72850;SDS011;61171;43.848;10.510;2022-09-09T13:27:40;7.07;;;2.20;;
72850;SDS011;61171;43.848;10.510;2022-09-09T13:29:41;8.57;;;1.90;;
72850;SDS011;61171;43.848;10.510;2022-09-09T13:31:50;6.57;;;1.70;;
72850;SDS011;61171;43.848;10.510;2022-09-09T13:33:55;6.70;;;1.75;;
72850;SDS011;61171;43.848;10.510;2022-09-09T13:35:56;8.17;;;1.90;;
72850;SDS011;61171;43.848;10.510;2022-09-09T13:37:58;8.48;;;2.05;;
72850;SDS011;61171;43.848;10.510;2022-09-09T13:39:58;8.30;;;2.17;;
72850;SDS011;61171;43.848;10.510;2022-09-09T13:41:58;8.00;;;1.80;;
72850;SDS011;61171;43.848;10.510;2022-09-09T13:43:59;6.83;;;1.90;;
72850;SDS011;61171;43.848;10.510;2022-09-09T13:46:01;5.47;;;1.98;;
72850;SDS011;61171;43.848;10.510;2022-09-09T13:48:08;7.28;;;1.73;;
72850;SDS011;61171;43.848;10.510;2022-09-09T13:50:28;7.85;;;1.98;;
72850;SDS011;61171;43.848;10.510;2022-09-09T13:52:28;7.85;;;2.13;;
72850;SDS011;61171;43.848;10.510;2022-09-09T13:54:30;5.03;;;1.97;;